createdAt,value
2023-02-08T00:30:18.155Z,94307.00
2023-02-08T00:31:18.392Z,94309.00
2023-02-08T00:32:18.295Z,94311.00
2023-02-08T00:33:18.368Z,94311.00
2023-02-08T00:34:18.446Z,94309.00
2023-02-08T02:47:28.092Z,94282.00
2023-02-08T02:48:28.726Z,94284.00
2023-02-08T02:49:28.243Z,94284.00
2023-02-08T02:50:28.340Z,94282.00
2023-02-08T02:51:28.441Z,94280.00
2023-02-08T02:52:28.455Z,94284.00
2023-02-08T02:53:28.517Z,94282.00
2023-02-08T02:54:28.570Z,94282.00
2023-02-08T02:55:28.665Z,94282.00
2023-02-08T05:40:39.123Z,94270.00
2023-02-08T05:45:38.180Z,94266.00
2023-02-08T05:46:38.578Z,94268.00
2023-02-08T05:47:38.259Z,94272.00
2023-02-08T05:55:38.786Z,94274.00
2023-02-08T06:45:41.532Z,94291.00
2023-02-08T06:48:41.511Z,94293.00
2023-02-08T06:49:41.505Z,94295.00
2023-02-08T06:50:41.951Z,94295.00
2023-02-08T06:51:41.503Z,94293.00
2023-02-08T06:52:41.521Z,94291.00
2023-02-08T06:53:41.494Z,94295.00
2023-02-08T06:54:41.493Z,94293.00
2023-02-08T06:55:41.483Z,94297.00
2023-02-08T06:56:41.477Z,94299.00
2023-02-08T06:57:41.473Z,94297.00
2023-02-08T06:58:41.458Z,94303.00
2023-02-08T06:59:41.470Z,94303.00
2023-02-08T07:00:41.761Z,94301.00
2023-02-08T07:01:41.454Z,94301.00
2023-02-08T07:03:41.437Z,94297.00
2023-02-08T07:04:41.485Z,94297.00
2023-02-08T07:05:45.226Z,94297.00
2023-02-08T07:07:41.405Z,94299.00
2023-02-08T07:08:41.401Z,94303.00
2023-02-08T07:09:41.391Z,94301.00
2023-02-08T07:10:43.657Z,94307.00
2023-02-08T07:11:41.350Z,94305.00
2023-02-08T07:12:41.354Z,94305.00
2023-02-08T07:13:41.334Z,94305.00
2023-02-08T07:14:41.327Z,94305.00
2023-02-08T07:15:42.244Z,94309.00
2023-02-08T07:16:41.328Z,94305.00
2023-02-08T07:17:41.307Z,94303.00
2023-02-08T07:18:41.319Z,94303.00
2023-02-08T07:19:41.285Z,94307.00
2023-02-08T07:20:42.500Z,94307.00
2023-02-08T07:21:41.265Z,94307.00
2023-02-08T07:27:41.313Z,94293.00
2023-02-08T07:50:42.143Z,94295.00
2023-02-08T09:15:44.894Z,94225.00
2023-02-08T10:21:46.265Z,94178.00
2023-02-08T10:36:48.899Z,94152.00
2023-02-08T16:28:48.012Z,93894.00
2023-02-08T16:29:48.060Z,93896.00
2023-02-08T16:30:48.398Z,93898.00
2023-02-08T16:31:48.285Z,93898.00
2023-02-08T16:32:48.178Z,93898.00
2023-02-08T16:33:48.237Z,93898.00
2023-02-08T16:34:48.355Z,93899.00
2023-02-08T16:35:48.340Z,93901.00
2023-02-08T16:36:48.394Z,93905.00
2023-02-08T16:37:48.451Z,93905.00
2023-02-08T16:38:48.505Z,93911.00
2023-02-08T16:39:48.573Z,93911.00
2023-02-08T16:40:48.611Z,93913.00
2023-02-08T16:41:48.656Z,93915.00
2023-02-08T16:42:48.713Z,93917.00
2023-02-08T16:43:48.779Z,93919.00
2023-02-08T16:44:48.833Z,93919.00
2023-02-08T16:45:48.895Z,93923.00
2023-02-08T16:46:48.942Z,93925.00
2023-02-08T16:47:49.550Z,93927.00
2023-02-08T16:48:49.057Z,93927.00
2023-02-08T16:49:49.110Z,93929.00
2023-02-08T16:50:49.157Z,93931.00
2023-02-08T16:51:49.229Z,93933.00
2023-02-08T16:53:49.408Z,93939.00
2023-02-08T16:54:49.422Z,93939.00
2023-02-08T16:55:49.452Z,93941.00
2023-02-08T16:56:49.510Z,93943.00
2023-02-08T16:57:49.569Z,93945.00
2023-02-08T16:58:49.642Z,93945.00
2023-02-08T16:59:49.695Z,93946.00
2023-02-08T17:00:49.758Z,93950.00
2023-02-08T17:01:49.854Z,93946.00
2023-02-08T17:02:49.897Z,93948.00
2023-02-08T17:03:50.104Z,93950.00
2023-02-08T17:04:50.027Z,93950.00
2023-02-08T17:05:50.077Z,93950.00
2023-02-08T17:06:50.150Z,93954.00
2023-02-08T17:08:50.284Z,93954.00
2023-02-08T22:13:55.170Z,94078.00
2023-02-08T22:14:55.215Z,94080.00
2023-02-08T22:15:56.195Z,94078.00
2023-02-08T22:16:55.334Z,94080.00
2023-02-08T22:17:55.326Z,94078.00
2023-02-08T22:18:55.367Z,94080.00
2023-02-08T22:19:55.389Z,94080.00
2023-02-08T22:20:55.440Z,94084.00
2023-02-08T22:21:55.465Z,94084.00
2023-02-08T22:22:55.569Z,94084.00
2023-02-08T22:23:55.536Z,94084.00
2023-02-08T22:24:55.582Z,94084.00
2023-02-08T22:25:55.612Z,94082.00
2023-02-08T22:26:55.661Z,94082.00
2023-02-08T22:27:55.739Z,94082.00
2023-02-08T22:28:55.749Z,94080.00
2023-02-08T22:29:56.170Z,94080.00
2023-02-08T22:30:55.959Z,94082.00
2023-02-08T22:31:56.006Z,94082.00
2023-02-08T22:32:55.883Z,94082.00
2023-02-08T22:33:55.944Z,94080.00
2023-02-08T22:34:55.981Z,94078.00
2023-02-08T22:35:56.013Z,94080.00
2023-02-08T22:36:56.047Z,94078.00
2023-02-08T22:37:56.087Z,94080.00
2023-02-08T22:38:56.198Z,94078.00
2023-02-08T22:39:56.185Z,94076.00
2023-02-08T22:40:56.203Z,94076.00
2023-02-08T22:41:56.236Z,94076.00
2023-02-08T22:42:56.279Z,94072.00
2023-02-08T22:43:56.335Z,94072.00
2023-02-08T22:44:56.383Z,94066.00
2023-02-08T22:45:56.415Z,94070.00
2023-02-08T22:46:56.452Z,94068.00
2023-02-08T22:47:56.494Z,94070.00
2023-02-08T22:48:56.538Z,94068.00
2023-02-08T22:49:56.583Z,94068.00
2023-02-08T22:50:56.645Z,94068.00
2023-02-08T22:51:56.689Z,94072.00
2023-02-08T22:52:57.676Z,94070.00
2023-02-08T22:53:56.791Z,94070.00
2023-02-08T22:54:56.845Z,94068.00
2023-02-08T22:55:56.883Z,94064.00
2023-02-08T22:56:57.687Z,94066.00
2023-02-08T22:57:56.967Z,94066.00
2023-02-08T22:58:57.022Z,94068.00
2023-02-08T22:59:57.076Z,94070.00
2023-02-08T23:00:57.122Z,94072.00
2023-02-08T23:01:57.306Z,94072.00
2023-02-08T23:02:57.246Z,94072.00
2023-02-08T23:03:57.262Z,94070.00
2023-02-08T23:04:57.336Z,94070.00
2023-02-08T23:05:57.357Z,94070.00
2023-02-08T23:06:57.408Z,94074.00
2023-02-08T23:07:57.480Z,94078.00
2023-02-08T23:08:57.520Z,94078.00
2023-02-08T23:09:57.558Z,94082.00
2023-02-08T23:10:57.611Z,94084.00
2023-02-08T23:11:57.662Z,94082.00
2023-02-08T23:12:57.711Z,94084.00
2023-02-08T23:13:57.763Z,94086.00
2023-02-08T23:14:57.842Z,94086.00
2023-02-08T23:15:57.910Z,94084.00
2023-02-08T23:16:57.899Z,94082.00
2023-02-08T23:17:57.949Z,94080.00
2023-02-08T23:18:58.014Z,94080.00
2023-02-08T23:19:58.085Z,94076.00
2023-02-08T23:20:58.121Z,94078.00
2023-02-08T23:21:58.181Z,94080.00
2023-02-08T23:22:58.270Z,94080.00
2023-02-08T23:23:58.276Z,94078.00
2023-02-08T23:24:58.324Z,94076.00
2023-02-08T23:25:58.375Z,94082.00
2023-02-08T23:26:58.432Z,94080.00
2023-02-08T23:27:58.608Z,94080.00
2023-02-08T23:28:58.537Z,94084.00
2023-02-08T23:29:59.185Z,94086.00
2023-02-08T23:30:58.814Z,94084.00
2023-02-08T23:31:58.707Z,94086.00
2023-02-08T23:32:58.770Z,94086.00
2023-02-08T23:33:58.810Z,94084.00
2023-02-08T23:34:58.854Z,94084.00
2023-02-08T23:35:58.904Z,94086.00
2023-02-08T23:36:58.963Z,94082.00
2023-02-08T23:37:59.026Z,94082.00
2023-02-08T23:38:59.072Z,94080.00
2023-02-08T23:39:59.111Z,94084.00
2023-02-08T23:40:59.174Z,94080.00
2023-02-08T23:41:59.220Z,94082.00
2023-02-08T23:42:59.272Z,94080.00
2023-02-08T23:43:59.332Z,94080.00
2023-02-08T23:44:59.379Z,94080.00
2023-02-08T23:45:59.450Z,94080.00
2023-02-08T23:46:59.513Z,94082.00
2023-02-08T23:47:59.529Z,94082.00
2023-02-08T23:48:59.593Z,94080.00
2023-02-08T23:49:59.641Z,94076.00
2023-02-08T23:50:59.699Z,94080.00
2023-02-08T23:51:59.750Z,94074.00
2023-02-08T23:52:59.816Z,94074.00
2023-02-08T23:53:59.865Z,94076.00
2023-02-08T23:55:00.212Z,94076.00
2023-02-08T23:55:59.973Z,94078.00
2023-02-08T23:57:00.045Z,94078.00
2023-02-08T23:58:00.104Z,94078.00
2023-02-08T23:59:00.172Z,94078.00
